Time;durP1;ratioP1;P1;durP2;ratioP2;P2;SDS_P1;SDS_P2;PMS_P1;PMS_P2;Temp;Humidity;BMP_temperature;BMP_pressure;BME280_temperature;BME280_humidity;BME280_pressure;Samples;Min_cycle;Max_cycle;Signal;HPM_P1;HPM_P2
2023/03/13 00:01:26;;;;;;;29.45;9.32;;;8.00;93.40;;;;;;5034304;28;20409;-44
2023/03/13 00:03:54;;;;;;;22.67;6.72;;;8.00;93.40;;;;;;5034483;28;20021;-44
2023/03/13 00:06:31;;;;;;;25.30;6.45;;;8.00;93.40;;;;;;5042085;28;20033;-44
2023/03/13 00:09:09;;;;;;;36.58;7.18;;;8.00;93.40;;;;;;5055085;28;20040;-43
2023/03/13 00:11:36;;;;;;;24.17;7.20;;;8.00;93.40;;;;;;5034896;28;20041;-44
2023/03/13 00:14:13;;;;;;;25.00;7.45;;;8.10;93.50;;;;;;5035295;28;20029;-43
2023/03/13 00:16:39;;;;;;;23.13;7.78;;;8.10;93.40;;;;;;5049802;28;20039;-45
2023/03/13 00:19:09;;;;;;;31.15;7.13;;;8.10;93.30;;;;;;5055222;28;20092;-43
2023/03/13 00:21:40;;;;;;;30.58;9.35;;;8.20;93.30;;;;;;5047478;28;20446;-43
2023/03/13 00:24:09;;;;;;;26.92;8.93;;;8.20;93.30;;;;;;5035289;28;20112;-43
2023/03/13 00:26:36;;;;;;;32.58;7.40;;;8.20;93.30;;;;;;5050916;28;20045;-43
2023/03/13 00:29:03;;;;;;;20.08;7.88;;;8.20;93.40;;;;;;5035215;28;20033;-44
2023/03/13 00:31:31;;;;;;;21.75;7.05;;;8.20;93.40;;;;;;5035065;28;20025;-43
2023/03/13 00:34:01;;;;;;;26.17;8.38;;;8.20;93.50;;;;;;5034337;28;20029;-44
2023/03/13 00:36:30;;;;;;;22.25;9.07;;;8.20;93.50;;;;;;5049947;28;20122;-45
2023/03/13 00:38:57;;;;;;;28.52;8.13;;;8.20;93.50;;;;;;5043356;28;20418;-45
2023/03/13 00:41:29;;;;;;;29.38;7.38;;;8.20;93.40;;;;;;5054061;28;20060;-43
2023/03/13 00:43:59;;;;;;;22.52;7.18;;;8.20;93.50;;;;;;5054513;28;20047;-43
2023/03/13 00:46:29;;;;;;;20.00;7.25;;;8.20;93.50;;;;;;5037141;28;20038;-45
2023/03/13 00:48:56;;;;;;;22.08;7.75;;;8.10;93.50;;;;;;5033985;28;20454;-44
2023/03/13 00:51:28;;;;;;;30.02;7.43;;;8.10;93.50;;;;;;5032889;28;20041;-44
2023/03/13 00:53:58;;;;;;;22.83;7.38;;;8.10;93.50;;;;;;5034896;28;20056;-46
2023/03/13 00:56:25;;;;;;;30.42;9.15;;;8.20;93.50;;;;;;5033909;28;20095;-45
2023/03/13 00:58:52;;;;;;;28.17;7.70;;;8.10;93.50;;;;;;5034941;28;20044;-44
2023/03/13 01:01:21;;;;;;;29.88;8.32;;;8.10;93.50;;;;;;5034758;28;20052;-46
2023/03/13 01:04:03;;;;;;;20.50;7.45;;;8.10;93.50;;;;;;5033528;28;20068;-43
2023/03/13 01:06:34;;;;;;;18.67;6.07;;;8.10;93.40;;;;;;5050373;28;20037;-43
2023/03/13 01:09:03;;;;;;;24.77;7.70;;;8.10;93.40;;;;;;5034724;28;20103;-44
2023/03/13 01:11:43;;;;;;;22.80;6.60;;;8.10;93.40;;;;;;5033291;28;20375;-44
2023/03/13 01:14:13;;;;;;;;;;;8.10;93.30;;;;;;5034873;28;20025;-43
2023/03/13 01:16:42;;;;;;;18.23;5.95;;;8.10;93.30;;;;;;5034732;28;19952;-43
2023/03/13 01:19:12;;;;;;;25.30;6.32;;;8.00;93.30;;;;;;5033440;28;20053;-43
2023/03/13 01:21:39;;;;;;;17.92;5.03;;;8.00;93.20;;;;;;5033492;28;20100;-45
2023/03/13 01:24:09;;;;;;;25.90;6.40;;;7.90;93.30;;;;;;5033847;28;20037;-44
2023/03/13 01:26:36;;;;;;;;;;;7.90;93.20;;;;;;5034484;28;20037;-43
2023/03/13 01:29:01;;;;;;;23.60;6.93;;;7.90;93.40;;;;;;5033618;28;19909;-43
2023/03/13 01:31:32;;;;;;;23.50;6.57;;;7.90;93.40;;;;;;5033954;28;20043;-43
2023/03/13 01:34:05;;;;;;;21.00;6.57;;;7.90;93.40;;;;;;5032771;28;20037;-45
2023/03/13 01:36:36;;;;;;;25.60;7.05;;;7.90;93.40;;;;;;5032831;28;20033;-43
2023/03/13 01:39:03;;;;;;;29.73;7.30;;;7.90;93.50;;;;;;5040472;28;20040;-45
2023/03/13 01:41:30;;;;;;;24.58;10.30;;;7.90;93.60;;;;;;5054049;28;20067;-47
2023/03/13 01:43:56;;;;;;;21.42;7.50;;;7.80;93.50;;;;;;5034360;28;20101;-51
2023/03/13 01:46:41;;;;;;;31.35;8.63;;;7.80;93.70;;;;;;5032925;28;20079;-58
2023/03/13 01:49:26;;;;;;;21.45;8.13;;;7.80;93.70;;;;;;5032516;28;20026;-57
2023/03/13 01:52:23;;;;;;;31.80;7.82;;;7.80;93.80;;;;;;5033290;28;20029;-58
2023/03/13 01:55:01;;;;;;;25.92;8.60;;;7.80;93.80;;;;;;5032948;28;20077;-58
2023/03/13 01:57:31;;;;;;;35.78;9.05;;;7.80;93.90;;;;;;5033644;28;20026;-58
2023/03/13 02:00:20;;;;;;;28.40;8.07;;;7.70;93.90;;;;;;5033894;28;20059;-56
2023/03/13 02:02:54;;;;;;;30.50;7.45;;;7.70;94.00;;;;;;5048516;28;20427;-55
2023/03/13 02:05:28;;;;;;;30.73;8.50;;;7.70;94.00;;;;;;5049158;28;20034;-54
2023/03/13 02:08:33;;;;;;;28.58;9.77;;;7.70;94.10;;;;;;5032728;28;20112;-52
2023/03/13 02:11:22;;;;;;;42.05;9.02;;;7.70;94.10;;;;;;5032830;28;20029;-54
2023/03/13 02:13:49;;;;;;;31.77;8.45;;;7.70;94.20;;;;;;5032773;28;20531;-58
2023/03/13 02:16:17;;;;;;;32.50;8.73;;;7.70;94.20;;;;;;5032603;28;20103;-58
2023/03/13 02:18:48;;;;;;;35.72;8.93;;;7.60;94.30;;;;;;5031755;28;20037;-57
2023/03/13 02:21:38;;;;;;;31.23;7.35;;;7.60;94.40;;;;;;5049420;28;20056;-54
2023/03/13 02:24:23;;;;;;;;;;;7.70;94.40;;;;;;5052039;28;20087;-55
2023/03/13 02:26:50;;;;;;;29.45;7.65;;;7.70;94.40;;;;;;5052050;28;20018;-54
2023/03/13 02:29:19;;;;;;;40.97;7.97;;;7.70;94.40;;;;;;5034012;28;20450;-54
2023/03/13 02:31:52;;;;;;;34.33;8.60;;;7.60;94.40;;;;;;5032727;28;20124;-52
2023/03/13 02:34:26;;;;;;;32.53;8.40;;;7.60;94.40;;;;;;5048757;28;20045;-52
2023/03/13 02:36:53;;;;;;;26.77;7.15;;;7.70;94.40;;;;;;5032915;28;20033;-53
2023/03/13 02:39:22;;;;;;;29.63;7.68;;;7.70;94.50;;;;;;5020022;28;20397;-53
2023/03/13 02:41:51;;;;;;;39.72;8.13;;;7.70;94.40;;;;;;5052142;28;20454;-54
2023/03/13 02:44:17;;;;;;;33.03;7.07;;;7.70;94.50;;;;;;5051644;28;20048;-54
2023/03/13 02:46:47;;;;;;;22.30;7.15;;;7.70;94.50;;;;;;5038886;28;20036;-53
2023/03/13 02:49:32;;;;;;;24.00;7.07;;;7.70;94.50;;;;;;5031927;28;20041;-57
2023/03/13 02:52:21;;;;;;;24.23;7.13;;;7.70;94.50;;;;;;5032775;28;20033;-54
2023/03/13 02:54:56;;;;;;;30.98;8.43;;;7.70;94.50;;;;;;5032972;28;20030;-57
2023/03/13 02:57:24;;;;;;;31.80;7.63;;;7.70;94.60;;;;;;5031835;28;20030;-59
2023/03/13 02:59:51;;;;;;;29.23;6.22;;;7.70;94.60;;;;;;5032734;28;20021;-60
2023/03/13 03:02:17;;;;;;;31.25;10.70;;;7.70;94.60;;;;;;5032871;28;20100;-60
2023/03/13 03:04:42;;;;;;;25.65;7.00;;;7.70;94.70;;;;;;5048260;28;20112;-59
2023/03/13 03:07:11;;;;;;;26.50;6.85;;;7.80;94.80;;;;;;5032900;28;20033;-59
2023/03/13 03:09:38;;;;;;;27.58;7.15;;;7.80;94.80;;;;;;5032876;28;20120;-60
2023/03/13 03:12:05;;;;;;;28.00;6.95;;;7.80;94.80;;;;;;5032479;28;20087;-60
2023/03/13 03:14:30;;;;;;;33.53;7.95;;;7.80;94.80;;;;;;5034834;28;20045;-61
2023/03/13 03:16:57;;;;;;;32.00;10.80;;;7.80;94.90;;;;;;5036763;28;20427;-61
2023/03/13 03:19:23;;;;;;;26.45;6.40;;;7.80;94.90;;;;;;5036753;28;20045;-60
2023/03/13 03:21:50;;;;;;;28.17;7.60;;;7.80;94.90;;;;;;5036892;28;20025;-60
2023/03/13 03:24:16;;;;;;;25.67;7.07;;;7.90;95.00;;;;;;5035422;28;20038;-60
2023/03/13 03:26:43;;;;;;;31.33;7.30;;;7.90;94.90;;;;;;5035883;28;20087;-60
2023/03/13 03:29:11;;;;;;;34.47;7.60;;;7.90;95.00;;;;;;5036376;28;20026;-60
2023/03/13 03:31:39;;;;;;;27.80;7.53;;;7.90;95.00;;;;;;5036532;28;20123;-60
2023/03/13 03:34:07;;;;;;;26.95;8.75;;;7.90;95.10;;;;;;5035526;28;20060;-60
2023/03/13 03:36:35;;;;;;;26.17;7.07;;;7.90;95.10;;;;;;5036389;28;20018;-59
2023/03/13 03:39:03;;;;;;;31.58;9.10;;;7.90;95.10;;;;;;5038381;28;20032;-59
2023/03/13 03:41:36;;;;;;;26.27;6.45;;;7.90;95.20;;;;;;5056311;28;20438;-60
2023/03/13 03:44:03;;;;;;;24.33;7.82;;;7.90;95.20;;;;;;5055109;28;20040;-60
2023/03/13 03:46:30;;;;;;;29.48;7.20;;;7.90;95.20;;;;;;5051507;28;20033;-59
2023/03/13 03:48:57;;;;;;;26.05;7.70;;;7.90;95.30;;;;;;5035559;28;20029;-59
2023/03/13 03:51:22;;;;;;;32.70;8.70;;;8.00;95.30;;;;;;5035346;28;20037;-59
2023/03/13 03:53:48;;;;;;;23.90;7.15;;;8.00;95.30;;;;;;5047748;28;20036;-59
2023/03/13 03:56:15;;;;;;;29.95;8.13;;;7.90;95.40;;;;;;5054597;28;20040;-60
2023/03/13 03:58:44;;;;;;;25.55;8.48;;;7.90;95.40;;;;;;5050331;28;20029;-61
2023/03/13 04:01:13;;;;;;;24.08;8.02;;;7.90;95.50;;;;;;5035319;28;20028;-60
2023/03/13 04:03:39;;;;;;;34.17;9.00;;;7.90;95.50;;;;;;5033911;28;20053;-61
2023/03/13 04:06:06;;;;;;;25.95;8.73;;;8.00;95.60;;;;;;5035036;28;20065;-60
2023/03/13 04:08:33;;;;;;;23.52;7.88;;;8.00;95.60;;;;;;5035252;28;20037;-60
2023/03/13 04:11:03;;;;;;;29.30;10.07;;;8.00;95.60;;;;;;5034675;28;20100;-61
2023/03/13 04:13:31;;;;;;;24.45;8.32;;;8.00;95.60;;;;;;5034848;28;20109;-61
2023/03/13 04:15:56;;;;;;;24.30;8.02;;;8.00;95.70;;;;;;5033955;28;20497;-61
2023/03/13 04:18:22;;;;;;;17.38;7.22;;;8.00;95.60;;;;;;5034033;28;20037;-61
2023/03/13 04:20:49;;;;;;;21.42;7.57;;;8.00;95.70;;;;;;5034989;28;20029;-61
2023/03/13 04:23:16;;;;;;;21.08;7.93;;;8.10;95.80;;;;;;5033500;28;20363;-61
2023/03/13 04:25:43;;;;;;;16.90;6.55;;;8.00;95.70;;;;;;5034886;28;20036;-61
2023/03/13 04:28:10;;;;;;;18.27;7.53;;;8.10;95.80;;;;;;5034778;28;20021;-61
2023/03/13 04:30:37;;;;;;;16.65;6.32;;;8.10;95.80;;;;;;5034763;28;20040;-61
2023/03/13 04:33:05;;;;;;;13.15;6.82;;;8.10;95.80;;;;;;5034535;28;20087;-61
2023/03/13 04:35:33;;;;;;;12.63;6.32;;;8.10;95.90;;;;;;5034764;28;20034;-61
2023/03/13 04:38:01;;;;;;;12.50;6.68;;;8.10;95.90;;;;;;5034428;28;20091;-61
2023/03/13 04:40:28;;;;;;;13.40;6.22;;;8.10;95.90;;;;;;5034894;28;20091;-61
2023/03/13 04:42:55;;;;;;;12.38;6.28;;;8.20;95.90;;;;;;5049477;28;20119;-61
2023/03/13 04:45:23;;;;;;;15.32;5.95;;;8.20;95.90;;;;;;5054265;28;20025;-60
2023/03/13 04:47:50;;;;;;;14.57;5.78;;;8.20;95.90;;;;;;5039709;28;20030;-61
2023/03/13 04:50:19;;;;;;;12.98;5.72;;;8.30;96.00;;;;;;5034390;28;20497;-61
2023/03/13 04:52:47;;;;;;;11.88;5.53;;;8.30;96.00;;;;;;5034428;28;20030;-61
2023/03/13 04:55:15;;;;;;;14.60;5.03;;;8.30;96.00;;;;;;5033759;28;20030;-60
2023/03/13 04:57:42;;;;;;;10.13;5.13;;;8.40;96.00;;;;;;5053914;28;20331;-61
2023/03/13 05:00:10;;;;;;;14.23;5.65;;;8.40;96.00;;;;;;5048338;28;20017;-61
2023/03/13 05:02:38;;;;;;;12.95;5.95;;;8.50;96.10;;;;;;5034035;28;20112;-61
2023/03/13 05:05:04;;;;;;;10.25;5.25;;;8.50;96.10;;;;;;5035194;28;20037;-60
2023/03/13 05:07:31;;;;;;;10.43;5.82;;;8.50;96.00;;;;;;5052646;28;20116;-61
2023/03/13 05:09:58;;;;;;;9.75;5.25;;;8.60;96.00;;;;;;5052957;28;20029;-61
2023/03/13 05:12:25;;;;;;;9.25;4.47;;;8.60;96.10;;;;;;5050324;28;20053;-61
2023/03/13 05:14:53;;;;;;;9.98;4.60;;;8.60;96.00;;;;;;5033763;28;20128;-60
2023/03/13 05:17:20;;;;;;;10.73;4.78;;;8.60;96.10;;;;;;5033883;28;20033;-58
2023/03/13 05:19:46;;;;;;;10.63;4.53;;;8.70;96.10;;;;;;5033899;28;20033;-59
2023/03/13 05:22:18;;;;;;;6.85;4.03;;;8.70;96.10;;;;;;5042921;28;20037;-59
2023/03/13 05:24:45;;;;;;;7.22;3.50;;;8.70;96.10;;;;;;5032657;28;20094;-61
2023/03/13 05:27:12;;;;;;;6.80;3.28;;;8.90;96.20;;;;;;5032877;28;20030;-61
2023/03/13 05:29:38;;;;;;;5.45;3.17;;;8.80;96.10;;;;;;5034145;28;20108;-59
2023/03/13 05:32:06;;;;;;;7.10;4.30;;;8.90;96.20;;;;;;5034005;28;20029;-52
2023/03/13 05:34:34;;;;;;;5.50;3.22;;;8.90;96.20;;;;;;5034064;28;20026;-57
2023/03/13 05:37:02;;;;;;;9.35;4.35;;;8.90;96.20;;;;;;5033954;28;20026;-57
2023/03/13 05:39:29;;;;;;;6.38;3.60;;;9.00;96.20;;;;;;5034090;28;20030;-58
2023/03/13 05:41:57;;;;;;;6.35;3.63;;;8.90;96.20;;;;;;5033015;28;20082;-59
2023/03/13 05:44:25;;;;;;;5.30;3.33;;;8.90;96.20;;;;;;5033144;28;20435;-59
2023/03/13 05:46:58;;;;;;;6.43;3.70;;;9.00;96.20;;;;;;5034130;28;20060;-56
2023/03/13 05:49:28;;;;;;;6.07;3.38;;;9.00;96.30;;;;;;5048233;28;20033;-56
2023/03/13 05:51:54;;;;;;;5.88;3.70;;;9.00;96.30;;;;;;5053775;28;20036;-54
2023/03/13 05:54:20;;;;;;;6.78;3.70;;;9.10;96.30;;;;;;5035852;28;20359;-53
2023/03/13 05:56:49;;;;;;;8.68;4.53;;;9.20;96.40;;;;;;5033770;28;20032;-49
2023/03/13 05:59:16;;;;;;;6.85;3.97;;;9.20;96.30;;;;;;5033803;28;20034;-54
2023/03/13 06:01:42;;;;;;;5.60;3.75;;;9.30;96.40;;;;;;5033596;28;20068;-58
2023/03/13 06:04:08;;;;;;;5.88;3.65;;;9.40;96.40;;;;;;5033704;28;20061;-55
2023/03/13 06:06:35;;;;;;;6.05;3.90;;;9.40;96.40;;;;;;5032552;28;20611;-50
2023/03/13 06:09:01;;;;;;;5.07;3.38;;;9.50;96.50;;;;;;5033765;28;20067;-51
2023/03/13 06:11:27;;;;;;;6.38;3.80;;;9.50;96.50;;;;;;5033458;28;20124;-57
2023/03/13 06:13:55;;;;;;;5.85;3.40;;;9.60;96.50;;;;;;5032546;28;20061;-57
2023/03/13 06:16:22;;;;;;;6.07;3.28;;;9.70;96.50;;;;;;5033701;28;20026;-59
2023/03/13 06:18:50;;;;;;;5.95;3.45;;;9.70;96.50;;;;;;5033241;28;20021;-60
2023/03/13 06:21:17;;;;;;;6.00;3.30;;;9.70;96.40;;;;;;5033653;28;20479;-60
2023/03/13 06:23:44;;;;;;;4.60;2.72;;;9.80;96.50;;;;;;5033234;28;20057;-60
2023/03/13 06:26:09;;;;;;;4.20;2.80;;;9.80;96.50;;;;;;5033086;28;20037;-60
2023/03/13 06:28:36;;;;;;;5.53;3.00;;;9.80;96.50;;;;;;5044934;28;20079;-60
2023/03/13 06:31:04;;;;;;;6.25;2.80;;;9.80;96.50;;;;;;5053264;28;20029;-59
2023/03/13 06:33:32;;;;;;;6.97;2.63;;;9.90;96.50;;;;;;5042781;28;20025;-59
2023/03/13 06:36:02;;;;;;;5.65;2.50;;;9.90;96.50;;;;;;5033497;28;20413;-56
2023/03/13 06:38:29;;;;;;;5.22;2.60;;;9.90;96.60;;;;;;5015597;28;20091;-60
2023/03/13 06:40:57;;;;;;;6.00;2.60;;;9.90;96.50;;;;;;5048758;28;20485;-60
2023/03/13 06:43:26;;;;;;;3.03;1.63;;;10.00;96.50;;;;;;5032253;28;20112;-60
2023/03/13 06:45:53;;;;;;;3.20;1.60;;;10.00;96.50;;;;;;5015917;28;20071;-61
2023/03/13 06:48:21;;;;;;;3.58;1.83;;;10.10;96.60;;;;;;5031046;28;20033;-61
2023/03/13 06:50:49;;;;;;;5.40;2.17;;;10.10;96.50;;;;;;5032413;28;20041;-61
2023/03/13 06:53:18;;;;;;;4.07;2.53;;;10.00;96.50;;;;;;5032653;28;20089;-61
2023/03/13 06:55:51;;;;;;;3.25;1.83;;;10.10;96.50;;;;;;5031071;28;20049;-61
2023/03/13 06:58:17;;;;;;;4.10;2.15;;;10.20;96.60;;;;;;5051819;28;20037;-62
2023/03/13 07:00:43;;;;;;;4.93;2.13;;;10.20;96.50;;;;;;5051213;28;20029;-61
2023/03/13 07:03:15;;;;;;;4.47;1.90;;;10.20;96.50;;;;;;5050748;28;20033;-62
2023/03/13 07:05:45;;;;;;;4.47;1.83;;;10.20;96.60;;;;;;5032237;28;20036;-62
2023/03/13 07:08:16;;;;;;;4.43;2.25;;;10.30;96.60;;;;;;5030562;28;20030;-62
2023/03/13 07:10:46;;;;;;;5.20;2.03;;;10.30;96.60;;;;;;5032067;28;20118;-62
2023/03/13 07:13:13;;;;;;;3.70;2.30;;;10.30;96.50;;;;;;5031847;28;20053;-62
2023/03/13 07:15:42;;;;;;;3.38;2.00;;;10.40;96.60;;;;;;5032185;28;20441;-62
2023/03/13 07:18:09;;;;;;;3.67;1.98;;;10.40;96.60;;;;;;5031929;28;20030;-62
2023/03/13 07:20:37;;;;;;;3.70;2.20;;;10.40;96.60;;;;;;5040270;28;20447;-62
2023/03/13 07:23:03;;;;;;;4.65;2.53;;;10.50;96.60;;;;;;5051107;28;20020;-61
2023/03/13 07:25:30;;;;;;;5.00;3.17;;;10.50;96.60;;;;;;5032685;28;20055;-61
2023/03/13 07:27:59;;;;;;;4.03;2.67;;;10.50;96.60;;;;;;5032008;28;20410;-61
2023/03/13 07:30:31;;;;;;;3.80;2.23;;;10.50;96.60;;;;;;5032005;28;20495;-62
2023/03/13 07:33:02;;;;;;;3.17;1.92;;;10.50;96.60;;;;;;5032278;28;20072;-62
2023/03/13 07:35:38;;;;;;;;;;;10.60;96.70;;;;;;5032470;28;20021;-63
2023/03/13 07:38:03;;;;;;;4.13;1.98;;;10.70;96.70;;;;;;5031867;28;20346;-63
2023/03/13 07:40:33;;;;;;;3.72;2.13;;;10.70;96.60;;;;;;5032026;28;20041;-62
2023/03/13 07:43:02;;;;;;;4.15;2.35;;;10.70;96.70;;;;;;5031887;28;20034;-63
2023/03/13 07:45:30;;;;;;;5.90;3.60;;;10.90;96.70;;;;;;5033634;28;20365;-60
2023/03/13 07:47:59;;;;;;;6.53;3.10;;;10.90;96.70;;;;;;5051675;28;20025;-59
2023/03/13 07:50:27;;;;;;;5.72;3.88;;;10.90;96.70;;;;;;5052350;28;20098;-59
2023/03/13 07:52:54;;;;;;;8.18;4.40;;;10.90;96.70;;;;;;5048340;28;20029;-60
2023/03/13 07:55:20;;;;;;;7.68;4.43;;;10.90;96.70;;;;;;5031790;28;20068;-60
2023/03/13 07:57:46;;;;;;;8.00;4.70;;;10.90;96.60;;;;;;5031907;28;20022;-61
2023/03/13 08:00:16;;;;;;;8.48;4.50;;;11.00;96.60;;;;;;5033134;28;20467;-61
2023/03/13 08:02:43;;;;;;;6.63;4.53;;;11.00;96.60;;;;;;5035484;28;20026;-63
2023/03/13 08:05:10;;;;;;;7.90;4.72;;;10.90;96.60;;;;;;5035273;28;20037;-62
2023/03/13 08:07:42;;;;;;;8.00;4.57;;;11.00;96.60;;;;;;5035235;28;20026;-60
2023/03/13 08:10:09;;;;;;;8.93;6.13;;;11.00;96.60;;;;;;5046965;28;20418;-58
2023/03/13 08:12:37;;;;;;;13.55;6.97;;;11.00;96.60;;;;;;5054870;28;20084;-55
2023/03/13 08:15:04;;;;;;;11.50;6.65;;;11.00;96.70;;;;;;5055243;28;20021;-54
2023/03/13 08:17:33;;;;;;;12.60;6.43;;;11.10;96.60;;;;;;5055103;28;20029;-54
2023/03/13 08:20:01;;;;;;;11.32;6.32;;;11.10;96.60;;;;;;5040085;28;20045;-57
2023/03/13 08:22:26;;;;;;;10.27;6.45;;;11.10;96.50;;;;;;5034730;28;20344;-57
2023/03/13 08:24:55;;;;;;;20.65;8.95;;;11.10;96.50;;;;;;5033853;28;20033;-57
2023/03/13 08:27:22;;;;;;;11.98;6.55;;;11.10;96.40;;;;;;5034300;28;20113;-56
2023/03/13 08:29:49;;;;;;;11.35;7.45;;;11.10;96.40;;;;;;5034944;28;20029;-49
2023/03/13 08:32:16;;;;;;;9.73;6.85;;;11.20;96.30;;;;;;5034341;28;20493;-55
2023/03/13 08:34:44;;;;;;;14.05;7.88;;;11.20;96.30;;;;;;5034885;28;20033;-60
2023/03/13 08:37:14;;;;;;;11.82;7.28;;;11.20;96.20;;;;;;5033551;28;20398;-59
2023/03/13 08:39:40;;;;;;;13.82;6.40;;;11.30;96.10;;;;;;5034542;28;20428;-59
2023/03/13 08:42:10;;;;;;;10.95;6.38;;;11.30;96.10;;;;;;5034678;28;20057;-57
2023/03/13 08:44:35;;;;;;;;;;;11.40;96.00;;;;;;5033696;28;20057;-58
2023/03/13 08:47:06;;;;;;;15.48;7.10;;;11.40;96.00;;;;;;5034490;28;20335;-55
2023/03/13 08:49:33;;;;;;;14.98;6.13;;;11.40;95.90;;;;;;5033357;28;20150;-55
2023/03/13 08:52:02;;;;;;;11.50;6.20;;;11.40;95.90;;;;;;5034584;28;20033;-56
2023/03/13 08:54:27;;;;;;;10.77;5.15;;;11.40;95.80;;;;;;5033046;28;20041;-54
2023/03/13 08:56:55;;;;;;;9.93;5.13;;;11.40;95.70;;;;;;5034375;28;20034;-51
2023/03/13 08:59:22;;;;;;;9.27;5.05;;;11.50;95.60;;;;;;5050291;28;20017;-49
2023/03/13 09:01:50;;;;;;;9.18;5.00;;;11.50;95.60;;;;;;5033598;28;20029;-50
2023/03/13 09:04:19;;;;;;;11.10;4.32;;;11.50;95.50;;;;;;5034736;28;20061;-50
2023/03/13 09:06:47;;;;;;;8.93;4.43;;;11.40;95.40;;;;;;5032875;28;20106;-51
2023/03/13 09:09:15;;;;;;;9.05;3.42;;;11.50;95.40;;;;;;5034668;28;20037;-50
2023/03/13 09:11:41;;;;;;;6.47;3.47;;;11.40;95.40;;;;;;5032208;28;20060;-54
2023/03/13 09:14:07;;;;;;;7.18;3.38;;;11.50;95.40;;;;;;5034585;28;20025;-57
2023/03/13 09:16:33;;;;;;;11.20;3.60;;;11.50;95.30;;;;;;5033685;28;20034;-58
2023/03/13 09:19:00;;;;;;;7.15;3.10;;;11.50;95.30;;;;;;5017236;28;20124;-58
2023/03/13 09:21:36;;;;;;;6.63;3.53;;;11.50;95.30;;;;;;5049808;28;20029;-54
2023/03/13 09:24:05;;;;;;;7.00;3.20;;;11.60;95.50;;;;;;5033402;28;20116;-47
2023/03/13 09:26:41;;;;;;;6.70;3.03;;;11.90;95.40;;;;;;5034316;28;20097;-47
2023/03/13 09:29:08;;;;;;;6.97;2.20;;;12.20;95.20;;;;;;5033225;28;20439;-45
2023/03/13 09:31:37;;;;;;;6.22;2.47;;;12.30;94.70;;;;;;5032917;28;20497;-46
2023/03/13 09:34:05;;;;;;;5.53;2.00;;;12.40;94.30;;;;;;5034353;28;20060;-43
2023/03/13 09:36:33;;;;;;;4.53;2.05;;;12.40;93.50;;;;;;5034090;28;20064;-44
2023/03/13 09:39:00;;;;;;;6.45;2.25;;;12.40;93.00;;;;;;5034266;28;20029;-43
2023/03/13 09:41:51;;;;;;;3.75;2.05;;;12.50;92.40;;;;;;5034198;28;20113;-44
2023/03/13 09:44:39;;;;;;;4.38;1.48;;;12.60;91.50;;;;;;5034169;28;20021;-43
2023/03/13 09:47:25;;;;;;;6.70;1.65;;;12.70;91.10;;;;;;5032882;28;20108;-43
2023/03/13 09:50:25;;;;;;;3.88;1.13;;;12.90;90.60;;;;;;5033765;28;20320;-44
2023/03/13 09:53:05;;;;;;;6.38;1.40;;;12.90;90.30;;;;;;5032489;28;20132;-43
2023/03/13 09:55:41;;;;;;;4.28;1.70;;;13.10;89.50;;;;;;5033171;28;20038;-43
2023/03/13 09:58:27;;;;;;;4.78;1.05;;;13.40;89.10;;;;;;5033490;28;20036;-46
2023/03/13 10:01:14;;;;;;;5.38;1.27;;;13.50;87.80;;;;;;5032625;28;20104;-45
2023/03/13 10:03:50;;;;;;;3.78;1.45;;;13.70;87.70;;;;;;5033471;28;20032;-45
2023/03/13 10:06:34;;;;;;;3.00;1.00;;;13.60;86.40;;;;;;5016644;28;20041;-45
2023/03/13 10:09:03;;;;;;;7.43;2.15;;;13.50;86.20;;;;;;5032389;28;20140;-45
2023/03/13 10:11:50;;;;;;;4.20;1.05;;;13.60;85.70;;;;;;5033147;28;20033;-46
2023/03/13 10:14:36;;;;;;;2.55;1.00;;;13.50;85.30;;;;;;5031970;28;20042;-45
2023/03/13 10:17:17;;;;;;;4.85;1.02;;;13.80;86.00;;;;;;5031726;28;20037;-46
2023/03/13 10:19:47;;;;;;;5.53;1.17;;;14.00;84.80;;;;;;5032612;28;20018;-46
2023/03/13 10:22:24;;;;;;;3.97;1.17;;;14.00;84.10;;;;;;5031542;28;20041;-47
2023/03/13 10:25:34;;;;;;;7.28;1.83;;;14.00;83.40;;;;;;5032105;28;20048;-46
2023/03/13 10:28:00;;;;;;;;;;;13.80;83.30;;;;;;5023475;28;20079;-47
2023/03/13 10:30:38;;;;;;;7.75;1.45;;;13.60;83.70;;;;;;5048192;28;19948;-47
2023/03/13 10:33:07;;;;;;;3.88;1.20;;;13.50;84.80;;;;;;5031763;28;20044;-48
2023/03/13 10:35:37;;;;;;;4.72;1.67;;;13.60;85.70;;;;;;5031808;28;20026;-46
2023/03/13 10:38:23;;;;;;;6.88;2.10;;;13.60;84.90;;;;;;5033105;28;20423;-46
2023/03/13 10:40:58;;;;;;;4.70;1.48;;;13.70;85.10;;;;;;5051900;28;20025;-45
2023/03/13 10:43:30;;;;;;;6.25;1.98;;;13.80;84.20;;;;;;5035288;28;20033;-47
2023/03/13 10:45:58;;;;;;;10.38;3.53;;;13.80;83.80;;;;;;5035797;28;20037;-45
2023/03/13 10:48:31;;;;;;;5.28;2.13;;;13.70;83.40;;;;;;5032761;28;20032;-46
2023/03/13 10:51:02;;;;;;;6.32;1.83;;;13.50;83.10;;;;;;5015589;28;20144;-45
2023/03/13 10:53:47;;;;;;;7.85;2.65;;;13.40;83.80;;;;;;5036465;28;20104;-45
2023/03/13 10:56:24;;;;;;;9.20;2.85;;;13.40;84.50;;;;;;5051628;28;20025;-44
2023/03/13 10:58:56;;;;;;;6.78;2.05;;;13.80;83.40;;;;;;5052789;28;20430;-45
2023/03/13 11:01:41;;;;;;;9.63;2.28;;;14.10;81.60;;;;;;5050595;28;20033;-44
2023/03/13 11:04:25;;;;;;;13.32;2.85;;;14.30;80.60;;;;;;5052796;28;20033;-45
2023/03/13 11:07:01;;;;;;;7.07;1.85;;;14.40;78.30;;;;;;5052752;28;20155;-47
2023/03/13 11:09:29;;;;;;;6.72;1.88;;;14.40;77.90;;;;;;5039791;28;20029;-45
2023/03/13 11:12:02;;;;;;;11.90;3.35;;;14.40;77.30;;;;;;5032415;28;20049;-44
2023/03/13 11:14:28;;;;;;;10.82;3.00;;;14.60;76.40;;;;;;5031630;28;20045;-44
2023/03/13 11:17:22;;;;;;;11.18;2.95;;;14.60;76.70;;;;;;5032284;28;20025;-44
2023/03/13 11:20:18;;;;;;;11.25;2.67;;;14.70;76.50;;;;;;5031825;28;20099;-45
2023/03/13 11:23:08;;;;;;;9.75;3.47;;;14.80;74.80;;;;;;5032959;28;20025;-46
2023/03/13 11:26:01;;;;;;;10.38;2.80;;;15.00;76.60;;;;;;5032655;28;20040;-45
2023/03/13 11:29:17;;;;;;;7.72;2.20;;;15.10;74.50;;;;;;5032205;28;20033;-45
2023/03/13 11:32:06;;;;;;;7.55;3.00;;;15.20;74.40;;;;;;5032085;28;20041;-44
2023/03/13 11:34:57;;;;;;;7.33;3.50;;;15.30;74.10;;;;;;5032085;28;20033;-45
2023/03/13 11:37:34;;;;;;;10.02;2.90;;;15.10;74.70;;;;;;5055125;28;20037;-44
2023/03/13 11:40:20;;;;;;;10.30;2.55;;;15.10;72.50;;;;;;5056201;28;20104;-45
2023/03/13 11:43:05;;;;;;;9.32;3.30;;;15.20;72.10;;;;;;5056511;28;20327;-46
2023/03/13 11:45:56;;;;;;;8.65;2.28;;;15.40;72.70;;;;;;5040024;28;20121;-44
2023/03/13 11:48:58;;;;;;;12.15;3.80;;;15.30;70.60;;;;;;5044774;28;20032;-48
2023/03/13 11:51:59;;;;;;;9.63;2.92;;;15.20;71.40;;;;;;5056204;28;20033;-45
2023/03/13 11:54:38;;;;;;;12.32;3.22;;;15.20;71.20;;;;;;5010254;28;20057;-45
2023/03/13 11:57:28;;;;;;;11.85;3.60;;;15.00;71.00;;;;;;4994442;28;20038;-45
2023/03/13 12:00:31;;;;;;;9.27;2.78;;;15.00;71.10;;;;;;4994212;28;20097;-46
2023/03/13 12:03:12;;;;;;;10.77;3.80;;;15.10;71.90;;;;;;4997022;28;20431;-44
2023/03/13 12:05:50;;;;;;;9.23;2.60;;;15.20;71.90;;;;;;5013705;28;20152;-44
2023/03/13 12:08:40;;;;;;;11.73;3.60;;;15.20;70.70;;;;;;4994098;28;20034;-45
2023/03/13 12:11:31;;;;;;;9.75;3.70;;;15.20;71.20;;;;;;4977472;28;20042;-45
2023/03/13 12:14:25;;;;;;;9.57;3.53;;;15.30;71.90;;;;;;4994135;28;20054;-46
2023/03/13 12:16:58;;;;;;;15.93;4.38;;;15.40;71.20;;;;;;4994230;28;20133;-47
2023/03/13 12:19:40;;;;;;;14.13;4.18;;;15.40;71.50;;;;;;4978234;28;20097;-47
2023/03/13 12:22:17;;;;;;;9.85;2.85;;;15.30;71.80;;;;;;4978107;28;20558;-46
2023/03/13 12:25:04;;;;;;;9.68;3.17;;;15.30;71.00;;;;;;4994360;28;20047;-45
2023/03/13 12:27:40;;;;;;;8.18;2.33;;;15.40;72.20;;;;;;4993623;28;20058;-47
2023/03/13 12:30:25;;;;;;;9.35;2.67;;;15.40;71.60;;;;;;4977976;28;20057;-48
2023/03/13 12:33:15;;;;;;;12.38;4.00;;;15.20;72.20;;;;;;5034955;28;20030;-45
2023/03/13 12:35:46;;;;;;;9.02;4.30;;;15.30;72.20;;;;;;5035072;28;20022;-47
2023/03/13 12:38:36;;;;;;;11.15;2.97;;;15.10;72.50;;;;;;5034123;28;20044;-47
2023/03/13 12:41:19;;;;;;;12.40;3.05;;;14.90;73.60;;;;;;5034764;28;20088;-48
2023/03/13 12:43:50;;;;;;;10.30;3.30;;;14.90;74.00;;;;;;5034988;28;20044;-46
2023/03/13 12:46:40;;;;;;;18.42;3.88;;;14.70;74.50;;;;;;5017272;28;20128;-45
2023/03/13 12:49:43;;;;;;;11.70;3.63;;;14.50;75.20;;;;;;5050660;28;20025;-46
2023/03/13 12:52:34;;;;;;;10.15;2.88;;;14.40;76.10;;;;;;5040888;28;20029;-46
2023/03/13 12:55:47;;;;;;;10.93;2.92;;;14.40;75.40;;;;;;5055045;28;20040;-45
2023/03/13 12:58:51;;;;;;;9.43;2.80;;;14.40;75.70;;;;;;5055353;28;20032;-47
2023/03/13 13:01:23;;;;;;;13.35;3.45;;;14.90;76.60;;;;;;5045889;28;20035;-46
2023/03/13 13:04:00;;;;;;;7.65;2.15;;;15.10;75.30;;;;;;5034544;28;20041;-45
2023/03/13 13:06:29;;;;;;;7.03;2.22;;;15.20;75.00;;;;;;5050277;28;20068;-46
2023/03/13 13:09:16;;;;;;;8.90;2.95;;;15.30;74.70;;;;;;5033839;28;20045;-46
2023/03/13 13:11:48;;;;;;;10.00;2.67;;;15.40;73.20;;;;;;5049767;28;20063;-46
2023/03/13 13:14:23;;;;;;;9.43;2.22;;;15.30;71.40;;;;;;5033690;28;20022;-46
2023/03/13 13:16:58;;;;;;;6.15;2.15;;;15.20;70.70;;;;;;5034561;28;20071;-46